Time;durP1;ratioP1;P1;durP2;ratioP2;P2;SDS_P1;SDS_P2;PMS_P1;PMS_P2;Temp;Humidity;BMP_temperature;BMP_pressure;BME280_temperature;BME280_humidity;BME280_pressure;Samples;Min_cycle;Max_cycle;Signal;HPM_P1;HPM_P2
2021/07/20 00:00:17;;;;;;;1.10;1.00;;;;;;;;;;5047947;28;20056;-60
2021/07/20 00:02:45;;;;;;;0.98;0.93;;;;;;;;;;5048057;28;20086;-61
2021/07/20 00:05:12;;;;;;;1.77;1.20;;;;;;;;;;5047628;28;20075;-61
2021/07/20 00:07:38;;;;;;;2.00;1.40;;;;;;;;;;5048101;28;20510;-61
2021/07/20 00:10:12;;;;;;;2.53;1.10;;;;;;;;;;5048239;28;20056;-61
2021/07/20 00:12:38;;;;;;;1.70;1.15;;;;;;;;;;5048044;28;20483;-61
2021/07/20 00:15:08;;;;;;;1.30;1.20;;;;;;;;;;5040673;28;20060;-61
2021/07/20 00:17:34;;;;;;;2.50;1.30;;;;;;;;;;5027781;28;20037;-60
2021/07/20 00:20:00;;;;;;;1.25;1.00;;;;;;;;;;5028217;28;20033;-61
2021/07/20 00:22:26;;;;;;;1.73;1.05;;;;;;;;;;5027760;28;20064;-61
2021/07/20 00:24:52;;;;;;;1.15;1.05;;;;;;;;;;5027479;28;20411;-60
2021/07/20 00:27:18;;;;;;;1.88;1.30;;;;;;;;;;5027565;28;20391;-61
2021/07/20 00:29:44;;;;;;;3.55;1.30;;;;;;;;;;5027969;28;20026;-60
2021/07/20 00:32:10;;;;;;;4.10;1.38;;;;;;;;;;5026744;28;20701;-60
2021/07/20 00:34:38;;;;;;;1.73;1.30;;;;;;;;;;5027481;28;20634;-60
2021/07/20 00:37:05;;;;;;;1.35;1.10;;;;;;;;;;5027983;28;20112;-60
2021/07/20 00:39:31;;;;;;;1.83;1.30;;;;;;;;;;5027319;28;20034;-60
2021/07/20 00:41:57;;;;;;;2.38;1.30;;;;;;;;;;5027526;28;20028;-60
2021/07/20 00:44:23;;;;;;;1.10;1.00;;;;;;;;;;5036643;28;20033;-61
2021/07/20 00:46:49;;;;;;;1.90;1.25;;;;;;;;;;5046952;28;20028;-61
2021/07/20 00:49:15;;;;;;;1.13;0.95;;;;;;;;;;5046172;28;20029;-60
2021/07/20 00:51:42;;;;;;;1.90;1.30;;;;;;;;;;5047916;28;20017;-61
2021/07/20 00:54:08;;;;;;;1.45;1.20;;;;;;;;;;5046154;28;20037;-61
2021/07/20 00:56:35;;;;;;;2.95;1.40;;;;;;;;;;5030706;28;20033;-61
2021/07/20 00:59:01;;;;;;;1.88;1.20;;;;;;;;;;5027169;28;20032;-61
2021/07/20 01:01:28;;;;;;;2.08;1.40;;;;;;;;;;5026634;28;20064;-61
2021/07/20 01:03:54;;;;;;;1.83;1.50;;;;;;;;;;5026671;28;20025;-61
2021/07/20 01:06:21;;;;;;;1.88;1.40;;;;;;;;;;5030526;28;20516;-61
2021/07/20 01:08:48;;;;;;;1.40;1.30;;;;;;;;;;5027230;28;20032;-61
2021/07/20 01:11:15;;;;;;;1.98;1.38;;;;;;;;;;5029705;28;20376;-61
2021/07/20 01:13:42;;;;;;;1.55;1.20;;;;;;;;;;5027743;28;20105;-60
2021/07/20 01:16:08;;;;;;;0.90;0.88;;;;;;;;;;5030001;28;20116;-61
2021/07/20 01:18:35;;;;;;;2.10;1.50;;;;;;;;;;5029029;28;20055;-60
2021/07/20 01:21:01;;;;;;;2.50;1.58;;;;;;;;;;5026084;28;20037;-61
2021/07/20 01:23:43;;;;;;;1.52;1.17;;;;;;;;;;5026932;28;20029;-60
2021/07/20 01:26:10;;;;;;;1.60;1.20;;;;;;;;;;5024814;28;20049;-61
2021/07/20 01:28:36;;;;;;;1.92;1.40;;;;;;;;;;5030528;28;20033;-60
2021/07/20 01:31:07;;;;;;;2.40;1.40;;;;;;;;;;5027301;28;20080;-60
2021/07/20 01:33:35;;;;;;;1.65;1.20;;;;;;;;;;5027108;28;20052;-60
2021/07/20 01:36:02;;;;;;;1.98;1.20;;;;;;;;;;5026039;28;20036;-60
2021/07/20 01:38:29;;;;;;;2.15;1.08;;;;;;;;;;5029820;28;20095;-60
2021/07/20 01:40:58;;;;;;;2.05;1.17;;;;;;;;;;5026864;28;20468;-61
2021/07/20 01:43:27;;;;;;;2.38;1.33;;;;;;;;;;5026289;28;20053;-61
2021/07/20 01:45:56;;;;;;;2.28;1.23;;;;;;;;;;5025947;28;20784;-61
2021/07/20 01:48:27;;;;;;;1.85;1.40;;;;;;;;;;5029302;28;20045;-61
2021/07/20 01:50:56;;;;;;;1.48;1.10;;;;;;;;;;5029296;28;20026;-61
2021/07/20 01:53:22;;;;;;;1.30;1.15;;;;;;;;;;5026300;28;20415;-60
2021/07/20 01:55:48;;;;;;;1.65;1.40;;;;;;;;;;5026253;28;20159;-61
2021/07/20 01:58:14;;;;;;;2.13;1.50;;;;;;;;;;5029385;28;20041;-60
2021/07/20 02:00:41;;;;;;;2.05;1.50;;;;;;;;;;5025829;28;20022;-60
2021/07/20 02:08:31;;;;;;;1.38;1.20;;;;;;;;;;5029865;28;20063;-61
2021/07/20 02:11:05;;;;;;;2.95;1.20;;;;;;;;;;5026218;28;20087;-61
2021/07/20 02:13:40;;;;;;;2.65;1.30;;;;;;;;;;5026797;28;20129;-61
2021/07/20 02:16:05;;;;;;;;;;;;;;;;;;5026559;28;20033;-61
2021/07/20 02:18:32;;;;;;;1.40;1.30;;;;;;;;;;5029229;28;19905;-61
2021/07/20 02:21:01;;;;;;;2.47;1.30;;;;;;;;;;5026517;28;20042;-61
2021/07/20 02:23:30;;;;;;;2.58;1.50;;;;;;;;;;5025961;28;20610;-61
2021/07/20 02:25:57;;;;;;;2.05;1.30;;;;;;;;;;5026089;28;20021;-61
2021/07/20 02:28:24;;;;;;;2.85;1.60;;;;;;;;;;5029137;28;20352;-61
2021/07/20 02:30:50;;;;;;;2.33;1.48;;;;;;;;;;5025815;28;20033;-61
2021/07/20 02:33:17;;;;;;;1.60;1.33;;;;;;;;;;5025876;28;20029;-60
2021/07/20 02:35:44;;;;;;;2.63;1.55;;;;;;;;;;5026055;28;20032;-60
2021/07/20 02:38:10;;;;;;;3.03;1.83;;;;;;;;;;5029009;28;20072;-61
2021/07/20 02:40:36;;;;;;;5.13;1.58;;;;;;;;;;5026106;28;20053;-60
2021/07/20 02:43:03;;;;;;;2.33;1.13;;;;;;;;;;5026745;28;20041;-61
2021/07/20 02:45:30;;;;;;;1.80;1.52;;;;;;;;;;5026018;28;20022;-61
2021/07/20 02:47:57;;;;;;;2.42;1.60;;;;;;;;;;5029056;28;20028;-61
2021/07/20 02:50:24;;;;;;;2.97;1.67;;;;;;;;;;5024418;28;20108;-60
2021/07/20 02:52:51;;;;;;;2.65;1.25;;;;;;;;;;5025812;28;20025;-61
2021/07/20 02:55:18;;;;;;;2.65;1.45;;;;;;;;;;5025917;28;20499;-61
2021/07/20 02:57:45;;;;;;;3.10;1.70;;;;;;;;;;5029178;28;20029;-61
2021/07/20 03:00:12;;;;;;;3.35;1.50;;;;;;;;;;5041838;28;20048;-61
2021/07/20 03:02:42;;;;;;;2.35;1.35;;;;;;;;;;5029232;28;20037;-61
2021/07/20 03:05:09;;;;;;;1.58;1.40;;;;;;;;;;5029012;28;20032;-60
2021/07/20 03:07:37;;;;;;;1.75;1.48;;;;;;;;;;5029067;28;20420;-60
2021/07/20 03:10:04;;;;;;;2.55;1.50;;;;;;;;;;5031723;28;20104;-61
2021/07/20 03:12:31;;;;;;;1.95;1.42;;;;;;;;;;5030804;28;20038;-61
2021/07/20 03:14:57;;;;;;;1.40;1.20;;;;;;;;;;5032653;28;20026;-61
2021/07/20 03:17:24;;;;;;;1.40;1.30;;;;;;;;;;5028080;28;20034;-60
2021/07/20 03:19:51;;;;;;;2.15;1.20;;;;;;;;;;5047886;28;20410;-60
2021/07/20 03:22:18;;;;;;;2.50;1.38;;;;;;;;;;5033392;28;20044;-60
2021/07/20 03:24:45;;;;;;;1.45;1.30;;;;;;;;;;5049442;28;20104;-60
2021/07/20 03:27:11;;;;;;;2.42;1.35;;;;;;;;;;5048613;28;20129;-61
2021/07/20 03:29:42;;;;;;;1.95;1.20;;;;;;;;;;5048613;28;20059;-60
2021/07/20 03:32:13;;;;;;;2.60;1.20;;;;;;;;;;5032963;28;20029;-60
2021/07/20 03:34:40;;;;;;;2.22;1.90;;;;;;;;;;5028694;28;20445;-60
2021/07/20 03:37:07;;;;;;;1.40;1.25;;;;;;;;;;5028819;28;20022;-60
2021/07/20 03:39:33;;;;;;;1.85;1.48;;;;;;;;;;5028383;28;20618;-60
2021/07/20 03:42:00;;;;;;;2.90;1.50;;;;;;;;;;5031761;28;20099;-60
2021/07/20 03:44:29;;;;;;;1.85;1.60;;;;;;;;;;5029727;28;20071;-60
2021/07/20 03:46:56;;;;;;;2.08;1.52;;;;;;;;;;5029065;28;20037;-61
2021/07/20 03:49:22;;;;;;;2.15;1.40;;;;;;;;;;5028136;28;20030;-60
2021/07/20 03:51:49;;;;;;;1.70;1.40;;;;;;;;;;5028593;28;20029;-61
2021/07/20 03:54:15;;;;;;;2.28;1.40;;;;;;;;;;5028080;28;20037;-61
2021/07/20 03:56:42;;;;;;;3.08;1.58;;;;;;;;;;5031885;28;20395;-61
2021/07/20 03:59:10;;;;;;;2.17;1.30;;;;;;;;;;5028133;28;20072;-61
2021/07/20 04:01:39;;;;;;;2.10;1.40;;;;;;;;;;5028382;28;20083;-60
2021/07/20 04:04:07;;;;;;;2.17;1.35;;;;;;;;;;5028073;28;20029;-60
2021/07/20 04:06:33;;;;;;;1.38;1.23;;;;;;;;;;5031320;28;20032;-61
2021/07/20 04:09:00;;;;;;;2.00;1.13;;;;;;;;;;5028200;28;20520;-60
2021/07/20 04:11:26;;;;;;;2.53;1.60;;;;;;;;;;5027757;28;20151;-61
2021/07/20 04:13:52;;;;;;;2.97;1.70;;;;;;;;;;5027909;28;20060;-61
2021/07/20 04:16:23;;;;;;;4.43;1.55;;;;;;;;;;5031155;28;20107;-60
2021/07/20 04:18:49;;;;;;;1.88;1.13;;;;;;;;;;5027971;28;20072;-60
2021/07/20 04:21:17;;;;;;;2.67;1.58;;;;;;;;;;5028064;28;20041;-60
2021/07/20 04:23:44;;;;;;;2.53;1.33;;;;;;;;;;5028391;28;20618;-61
2021/07/20 04:26:10;;;;;;;3.03;1.33;;;;;;;;;;5030659;28;20045;-60
2021/07/20 04:28:36;;;;;;;3.65;1.52;;;;;;;;;;5027709;28;20033;-60
2021/07/20 04:31:03;;;;;;;2.08;1.55;;;;;;;;;;5027736;28;20483;-60
2021/07/20 04:33:32;;;;;;;3.78;1.55;;;;;;;;;;5027273;28;20808;-60
2021/07/20 04:35:59;;;;;;;2.35;1.40;;;;;;;;;;5030718;28;20108;-61
2021/07/20 04:38:25;;;;;;;2.08;1.50;;;;;;;;;;5027115;28;20030;-61
2021/07/20 04:40:52;;;;;;;1.92;1.30;;;;;;;;;;5026112;28;20045;-61
2021/07/20 04:43:18;;;;;;;2.70;1.48;;;;;;;;;;5030041;28;20526;-60
2021/07/20 04:45:45;;;;;;;2.28;1.42;;;;;;;;;;5031043;28;20402;-61
2021/07/20 04:48:15;;;;;;;2.28;1.63;;;;;;;;;;5026799;28;20025;-61
2021/07/20 04:50:42;;;;;;;2.15;1.38;;;;;;;;;;5030591;28;20025;-61
2021/07/20 04:53:09;;;;;;;1.65;1.15;;;;;;;;;;5026964;28;20065;-61
2021/07/20 04:55:38;;;;;;;1.52;1.30;;;;;;;;;;5029920;28;20017;-60
2021/07/20 04:58:04;;;;;;;2.90;1.50;;;;;;;;;;5026833;28;20083;-61
2021/07/20 05:00:30;;;;;;;1.60;1.30;;;;;;;;;;5027014;28;20025;-61
2021/07/20 05:02:57;;;;;;;2.10;1.60;;;;;;;;;;5027089;28;20084;-61
2021/07/20 05:05:24;;;;;;;1.63;1.33;;;;;;;;;;5027304;28;20029;-61
2021/07/20 05:07:54;;;;;;;3.03;1.70;;;;;;;;;;5028838;28;20033;-61
2021/07/20 05:10:20;;;;;;;1.80;1.42;;;;;;;;;;5026462;28;20035;-61
2021/07/20 05:12:47;;;;;;;1.30;1.17;;;;;;;;;;5027513;28;20032;-61
2021/07/20 05:15:20;;;;;;;2.72;1.63;;;;;;;;;;5023856;28;20056;-60
2021/07/20 05:17:47;;;;;;;2.40;1.50;;;;;;;;;;5028133;28;20144;-60
2021/07/20 05:20:14;;;;;;;1.30;1.20;;;;;;;;;;5029198;28;20486;-60
2021/07/20 05:22:41;;;;;;;2.75;1.67;;;;;;;;;;5046059;28;20132;-60
2021/07/20 05:25:08;;;;;;;2.03;1.52;;;;;;;;;;5040354;28;20064;-61
2021/07/20 05:27:38;;;;;;;2.50;1.30;;;;;;;;;;5026578;28;20052;-61
2021/07/20 05:30:06;;;;;;;1.40;1.30;;;;;;;;;;5026595;28;20025;-61
2021/07/20 05:32:33;;;;;;;1.90;1.25;;;;;;;;;;5026813;28;20112;-61
2021/07/20 05:34:59;;;;;;;1.40;1.30;;;;;;;;;;5034194;28;20028;-62
2021/07/20 05:37:25;;;;;;;1.38;1.13;;;;;;;;;;5042256;28;20037;-62
2021/07/20 05:39:52;;;;;;;2.22;1.40;;;;;;;;;;5035102;28;20033;-62
2021/07/20 05:42:18;;;;;;;1.45;1.25;;;;;;;;;;5045931;28;20059;-61
2021/07/20 05:44:50;;;;;;;2.90;1.58;;;;;;;;;;5029607;28;20061;-61
2021/07/20 05:47:17;;;;;;;1.60;1.30;;;;;;;;;;5034865;28;20171;-61
2021/07/20 05:49:43;;;;;;;1.67;1.30;;;;;;;;;;5043091;28;20403;-61
2021/07/20 05:52:09;;;;;;;1.92;1.60;;;;;;;;;;5026500;28;20468;-62
2021/07/20 05:54:36;;;;;;;2.10;1.33;;;;;;;;;;5039699;28;20453;-61
2021/07/20 05:57:02;;;;;;;2.15;1.42;;;;;;;;;;5029568;28;20030;-61
2021/07/20 05:59:29;;;;;;;3.60;1.58;;;;;;;;;;5033278;28;20025;-61
2021/07/20 06:01:55;;;;;;;2.95;1.50;;;;;;;;;;5044516;28;20033;-60
2021/07/20 06:04:23;;;;;;;2.72;1.65;;;;;;;;;;5040213;28;20014;-61
2021/07/20 06:06:50;;;;;;;1.88;1.55;;;;;;;;;;5026160;28;20025;-61
2021/07/20 06:09:21;;;;;;;2.50;1.60;;;;;;;;;;5026003;28;20561;-61
2021/07/20 06:11:48;;;;;;;2.20;1.60;;;;;;;;;;5026363;28;20048;-61
2021/07/20 06:14:16;;;;;;;2.20;1.75;;;;;;;;;;5033415;28;20060;-61
2021/07/20 06:16:43;;;;;;;2.13;1.70;;;;;;;;;;5026245;28;20036;-61
2021/07/20 06:19:09;;;;;;;3.17;1.85;;;;;;;;;;5039587;28;20036;-61
2021/07/20 06:21:38;;;;;;;2.33;1.70;;;;;;;;;;5046027;28;20040;-61
2021/07/20 06:24:05;;;;;;;3.22;1.58;;;;;;;;;;5037063;28;20113;-61
2021/07/20 06:26:32;;;;;;;1.80;1.40;;;;;;;;;;5025878;28;20033;-61
2021/07/20 06:29:00;;;;;;;1.75;1.17;;;;;;;;;;5026995;28;20021;-61
2021/07/20 06:31:27;;;;;;;2.05;1.55;;;;;;;;;;5027214;28;20506;-61
2021/07/20 06:33:54;;;;;;;1.30;1.10;;;;;;;;;;5032435;28;20053;-61
2021/07/20 06:36:21;;;;;;;2.85;1.75;;;;;;;;;;5030327;28;20056;-61
2021/07/20 06:38:47;;;;;;;1.63;1.20;;;;;;;;;;5033994;28;20045;-60
2021/07/20 06:41:13;;;;;;;2.78;1.58;;;;;;;;;;5039936;28;20040;-61
2021/07/20 06:43:40;;;;;;;3.15;1.85;;;;;;;;;;5036546;28;20036;-61
2021/07/20 06:46:07;;;;;;;2.65;1.67;;;;;;;;;;5032630;28;20403;-61
2021/07/20 06:48:35;;;;;;;2.75;1.40;;;;;;;;;;5036218;28;20025;-61
2021/07/20 06:51:01;;;;;;;2.85;1.67;;;;;;;;;;5035507;28;20045;-61
2021/07/20 06:53:28;;;;;;;2.67;1.75;;;;;;;;;;5040211;28;20042;-61
2021/07/20 06:55:56;;;;;;;2.42;1.73;;;;;;;;;;5038396;28;20057;-61
2021/07/20 06:58:24;;;;;;;2.72;1.60;;;;;;;;;;5037691;28;20030;-61
2021/07/20 07:00:53;;;;;;;2.00;1.80;;;;;;;;;;5037057;28;20034;-61
2021/07/20 07:03:21;;;;;;;2.22;1.85;;;;;;;;;;5043769;28;20029;-62
2021/07/20 07:05:48;;;;;;;2.10;1.60;;;;;;;;;;5032934;28;20045;-61
2021/07/20 07:08:15;;;;;;;1.98;1.63;;;;;;;;;;5034293;28;20026;-60
2021/07/20 07:10:41;;;;;;;1.80;1.67;;;;;;;;;;5029933;28;20025;-63
2021/07/20 07:13:08;;;;;;;2.85;2.00;;;;;;;;;;5032505;28;20025;-61
2021/07/20 07:15:35;;;;;;;1.98;1.67;;;;;;;;;;5034392;28;20037;-61
2021/07/20 07:18:02;;;;;;;2.20;1.60;;;;;;;;;;5045695;28;20032;-61
2021/07/20 07:20:28;;;;;;;2.97;1.58;;;;;;;;;;5047232;28;20025;-62
2021/07/20 07:22:55;;;;;;;2.13;1.50;;;;;;;;;;5032181;28;20109;-60
2021/07/20 07:25:21;;;;;;;2.17;1.52;;;;;;;;;;5036838;28;20090;-61
2021/07/20 07:27:48;;;;;;;2.00;1.58;;;;;;;;;;5029657;28;20060;-62
2021/07/20 07:30:16;;;;;;;1.75;1.52;;;;;;;;;;5041606;28;20029;-62
2021/07/20 07:32:42;;;;;;;2.45;1.70;;;;;;;;;;5049560;28;20364;-61
2021/07/20 07:35:09;;;;;;;1.85;1.65;;;;;;;;;;5049970;28;20033;-62
2021/07/20 07:37:36;;;;;;;3.22;2.13;;;;;;;;;;5049217;28;20029;-62
2021/07/20 07:40:04;;;;;;;3.00;2.13;;;;;;;;;;5029743;28;20057;-62
2021/07/20 07:42:31;;;;;;;2.80;1.95;;;;;;;;;;5040976;28;20069;-62
2021/07/20 07:44:58;;;;;;;2.80;1.88;;;;;;;;;;5048940;28;20108;-62
2021/07/20 07:47:25;;;;;;;2.35;1.90;;;;;;;;;;5036303;28;20068;-62
2021/07/20 07:49:51;;;;;;;3.28;2.00;;;;;;;;;;5029517;28;20072;-62
2021/07/20 07:52:17;;;;;;;2.20;1.85;;;;;;;;;;5029128;28;20088;-62
2021/07/20 07:54:47;;;;;;;2.25;1.42;;;;;;;;;;5029510;28;20076;-62
2021/07/20 07:57:14;;;;;;;2.10;1.60;;;;;;;;;;5028991;28;20087;-62
2021/07/20 07:59:40;;;;;;;2.50;1.67;;;;;;;;;;5029279;28;20040;-62
2021/07/20 08:02:08;;;;;;;2.08;1.83;;;;;;;;;;5029436;28;20025;-62
2021/07/20 08:04:35;;;;;;;2.45;1.95;;;;;;;;;;5047138;28;20033;-63
2021/07/20 08:07:01;;;;;;;2.60;1.80;;;;;;;;;;5047737;28;20394;-62
2021/07/20 08:09:30;;;;;;;2.08;1.55;;;;;;;;;;5049202;28;20036;-62
2021/07/20 08:11:57;;;;;;;3.05;1.70;;;;;;;;;;5049301;28;20491;-62
2021/07/20 08:14:23;;;;;;;1.92;1.70;;;;;;;;;;5048732;28;20099;-62
2021/07/20 08:16:50;;;;;;;2.42;1.75;;;;;;;;;;5048808;28;20570;-62
2021/07/20 08:19:19;;;;;;;2.05;1.75;;;;;;;;;;5048532;28;20047;-62
2021/07/20 08:21:46;;;;;;;1.85;1.60;;;;;;;;;;5048845;28;20407;-62
2021/07/20 08:24:12;;;;;;;3.17;2.08;;;;;;;;;;5045144;28;20084;-62
2021/07/20 08:26:49;;;;;;;2.55;1.85;;;;;;;;;;5038597;28;20573;-62
2021/07/20 08:29:17;;;;;;;3.08;1.40;;;;;;;;;;5032039;28;20032;-61
2021/07/20 08:31:56;;;;;;;1.70;1.60;;;;;;;;;;5034413;28;20113;-61
2021/07/20 08:34:23;;;;;;;1.80;1.60;;;;;;;;;;5038983;28;20047;-62
2021/07/20 08:36:50;;;;;;;1.77;1.50;;;;;;;;;;5048753;28;20025;-63
2021/07/20 08:39:17;;;;;;;2.08;1.58;;;;;;;;;;5046568;28;20028;-62
2021/07/20 08:41:43;;;;;;;1.38;1.27;;;;;;;;;;5043975;28;20053;-62
2021/07/20 08:44:28;;;;;;;2.13;1.55;;;;;;;;;;5028054;28;20036;-63
2021/07/20 08:47:04;;;;;;;3.10;1.50;;;;;;;;;;5029864;28;20029;-62
2021/07/20 08:49:49;;;;;;;2.67;1.67;;;;;;;;;;5030713;28;20108;-62
2021/07/20 08:52:20;;;;;;;3.78;2.03;;;;;;;;;;5028432;28;20087;-62
2021/07/20 08:54:57;;;;;;;5.25;2.88;;;;;;;;;;5047306;28;20033;-63
2021/07/20 08:57:29;;;;;;;3.35;2.53;;;;;;;;;;5044394;28;20032;-61
2021/07/20 09:00:16;;;;;;;2.28;1.92;;;;;;;;;;5045791;28;20029;-62
2021/07/20 09:02:45;;;;;;;2.40;2.20;;;;;;;;;;5047090;28;20107;-62
2021/07/20 09:05:26;;;;;;;3.97;2.85;;;;;;;;;;5046698;28;20033;-62
2021/07/20 09:07:52;;;;;;;2.17;1.98;;;;;;;;;;5045521;28;20233;-62
2021/07/20 09:10:21;;;;;;;2.92;1.98;;;;;;;;;;5044964;28;20124;-62
2021/07/20 09:12:49;;;;;;;3.90;1.90;;;;;;;;;;5045639;28;20021;-62
2021/07/20 09:15:20;;;;;;;2.22;1.58;;;;;;;;;;5044298;28;20021;-62
2021/07/20 09:18:01;;;;;;;2.10;1.80;;;;;;;;;;5045483;28;20087;-63
2021/07/20 09:20:30;;;;;;;1.35;1.17;;;;;;;;;;5045106;28;20053;-62
2021/07/20 09:23:08;;;;;;;2.28;1.75;;;;;;;;;;5045698;28;20033;-61
2021/07/20 09:25:54;;;;;;;1.50;1.30;;;;;;;;;;5045157;28;20053;-62
2021/07/20 09:28:28;;;;;;;1.55;1.42;;;;;;;;;;5045149;28;20020;-63
2021/07/20 09:30:56;;;;;;;1.45;1.35;;;;;;;;;;5045479;28;20025;-62
2021/07/20 09:33:33;;;;;;;2.13;1.70;;;;;;;;;;5044867;28;20025;-63
2021/07/20 09:36:00;;;;;;;2.22;1.60;;;;;;;;;;5045243;28;20032;-62
2021/07/20 09:38:30;;;;;;;1.70;1.60;;;;;;;;;;5045361;28;20025;-62
2021/07/20 09:41:05;;;;;;;1.92;1.73;;;;;;;;;;5045170;28;20223;-61
2021/07/20 09:43:46;;;;;;;2.15;1.90;;;;;;;;;;5039685;28;20078;-62
2021/07/20 09:46:17;;;;;;;1.58;1.35;;;;;;;;;;5029564;28;20391;-62
2021/07/20 09:48:56;;;;;;;1.52;1.40;;;;;;;;;;5038188;28;20071;-62
2021/07/20 09:51:22;;;;;;;1.30;1.20;;;;;;;;;;5027718;28;20029;-62
2021/07/20 09:53:48;;;;;;;1.52;1.23;;;;;;;;;;5040080;28;20151;-61
2021/07/20 09:56:43;;;;;;;2.50;1.65;;;;;;;;;;5045298;28;20036;-61
2021/07/20 09:59:28;;;;;;;1.77;1.65;;;;;;;;;;5023381;28;20049;-61
2021/07/20 10:01:55;;;;;;;1.20;1.10;;;;;;;;;;5027535;28;20083;-62
2021/07/20 10:04:26;;;;;;;2.60;1.58;;;;;;;;;;5031194;28;20025;-61
2021/07/20 10:06:59;;;;;;;2.75;1.95;;;;;;;;;;5030763;28;20563;-62
2021/07/20 10:09:31;;;;;;;3.15;2.03;;;;;;;;;;5039345;28;20069;-61
2021/07/20 10:12:00;;;;;;;2.75;2.08;;;;;;;;;;5031254;28;20086;-62
2021/07/20 10:14:31;;;;;;;2.90;1.80;;;;;;;;;;5034936;28;20036;-62
2021/07/20 10:16:57;;;;;;;2.08;1.80;;;;;;;;;;5056922;28;20041;-62
2021/07/20 10:19:38;;;;;;;1.88;1.60;;;;;;;;;;5064093;28;20054;-62
2021/07/20 10:22:08;;;;;;;2.95;1.83;;;;;;;;;;5033583;28;20044;-62
2021/07/20 10:24:37;;;;;;;2.40;2.05;;;;;;;;;;5029256;28;20392;-63
2021/07/20 10:27:07;;;;;;;1.83;1.60;;;;;;;;;;5030176;28;20033;-62
2021/07/20 10:29:46;;;;;;;2.67;1.60;;;;;;;;;;5044395;28;20033;-62
2021/07/20 10:32:16;;;;;;;1.58;1.48;;;;;;;;;;5042842;28;20033;-62
2021/07/20 10:34:47;;;;;;;3.42;2.10;;;;;;;;;;5048952;28;20128;-62
2021/07/20 10:37:16;;;;;;;2.08;1.75;;;;;;;;;;5048308;28;20499;-62
2021/07/20 10:39:47;;;;;;;1.52;1.40;;;;;;;;;;5048526;28;20025;-63
2021/07/20 10:42:25;;;;;;;1.65;1.55;;;;;;;;;;5048967;28;20033;-62
2021/07/20 10:45:00;;;;;;;1.98;1.70;;;;;;;;;;5048192;28;20036;-63
2021/07/20 10:47:30;;;;;;;2.00;1.58;;;;;;;;;;5049616;28;20029;-63
2021/07/20 10:50:01;;;;;;;2.40;1.85;;;;;;;;;;5049413;28;20025;-62
2021/07/20 10:52:36;;;;;;;4.18;2.13;;;;;;;;;;5048990;28;20036;-62
2021/07/20 10:55:08;;;;;;;2.35;1.90;;;;;;;;;;5048367;28;20108;-63
2021/07/20 10:57:39;;;;;;;2.05;1.80;;;;;;;;;;5041691;28;20036;-61
2021/07/20 11:00:07;;;;;;;2.95;2.05;;;;;;;;;;5033159;28;20385;-62
2021/07/20 11:02:44;;;;;;;3.13;2.55;;;;;;;;;;5028562;28;20048;-61
2021/07/20 11:05:10;;;;;;;2.75;2.10;;;;;;;;;;5029877;28;20576;-63
2021/07/20 11:07:43;;;;;;;1.95;1.77;;;;;;;;;;5047063;28;20522;-63
2021/07/20 11:10:15;;;;;;;2.63;2.13;;;;;;;;;;5047199;28;20028;-62
2021/07/20 11:12:44;;;;;;;4.15;2.53;;;;;;;;;;5046695;28;20021;-63
2021/07/20 11:15:11;;;;;;;2.13;1.95;;;;;;;;;;5039585;28;20037;-63
2021/07/20 11:17:38;;;;;;;2.00;1.52;;;;;;;;;;5044006;28;20060;-63
2021/07/20 11:20:09;;;;;;;1.77;1.60;;;;;;;;;;5027059;28;20033;-63
2021/07/20 11:22:36;;;;;;;1.55;1.45;;;;;;;;;;5028460;28;20280;-63
2021/07/20 11:25:02;;;;;;;1.67;1.42;;;;;;;;;;5028374;28;20022;-63
2021/07/20 11:27:29;;;;;;;1.52;1.42;;;;;;;;;;5028034;28;20105;-64
2021/07/20 11:29:56;;;;;;;1.55;1.45;;;;;;;;;;5041912;28;20025;-64
2021/07/20 11:32:26;;;;;;;1.42;1.33;;;;;;;;;;5047708;28;20029;-63
2021/07/20 11:34:56;;;;;;;1.65;1.48;;;;;;;;;;5041628;28;20108;-62
2021/07/20 11:37:28;;;;;;;2.03;1.73;;;;;;;;;;5030948;28;20079;-62
2021/07/20 11:40:00;;;;;;;3.60;2.67;;;;;;;;;;5032136;28;20430;-63
2021/07/20 11:42:36;;;;;;;3.10;1.90;;;;;;;;;;5027729;28;20037;-63
2021/07/20 11:45:03;;;;;;;2.25;2.00;;;;;;;;;;5028152;28;20091;-61
2021/07/20 11:47:51;;;;;;;2.13;1.92;;;;;;;;;;5031587;28;20117;-62
2021/07/20 11:50:40;;;;;;;2.25;1.60;;;;;;;;;;5028237;28;20793;-63
2021/07/20 11:53:06;;;;;;;2.10;1.90;;;;;;;;;;5033285;28;20036;-62
2021/07/20 11:56:04;;;;;;;2.45;2.25;;;;;;;;;;5028279;28;20026;-63
2021/07/20 11:58:30;;;;;;;3.67;2.67;;;;;;;;;;5025729;28;20049;-63
2021/07/20 12:01:15;;;;;;;2.00;1.80;;;;;;;;;;5031520;28;20033;-63
2021/07/20 12:03:50;;;;;;;2.63;2.10;;;;;;;;;;5028014;28;20044;-63
2021/07/20 12:06:19;;;;;;;2.78;1.75;;;;;;;;;;5033391;28;20523;-63
2021/07/20 12:08:46;;;;;;;2.08;1.88;;;;;;;;;;5027522;28;20026;-63
2021/07/20 12:11:17;;;;;;;2.60;1.67;;;;;;;;;;5031296;28;20029;-63
2021/07/20 12:13:44;;;;;;;1.83;1.48;;;;;;;;;;5028032;28;20088;-63
2021/07/20 12:16:11;;;;;;;1.50;1.40;;;;;;;;;;5031651;28;20013;-63
2021/07/20 12:18:49;;;;;;;1.50;1.40;;;;;;;;;;5028500;28;20041;-63
2021/07/20 12:21:20;;;;;;;2.65;1.52;;;;;;;;;;5039886;28;20500;-63
2021/07/20 12:23:46;;;;;;;1.95;1.80;;;;;;;;;;5047400;28;20032;-63
2021/07/20 12:26:12;;;;;;;1.90;1.30;;;;;;;;;;5037031;28;20017;-63
2021/07/20 12:28:42;;;;;;;1.48;1.35;;;;;;;;;;5028433;28;20484;-63
2021/07/20 12:31:09;;;;;;;2.35;2.08;;;;;;;;;;5026260;28;20101;-62
2021/07/20 12:33:35;;;;;;;2.22;1.90;;;;;;;;;;5027904;28;20395;-62
2021/07/20 12:36:04;;;;;;;1.77;1.67;;;;;;;;;;5044875;28;20025;-63
2021/07/20 12:38:33;;;;;;;3.83;1.52;;;;;;;;;;5047164;28;20040;-63
2021/07/20 12:41:07;;;;;;;1.60;1.50;;;;;;;;;;5037185;28;20033;-63
2021/07/20 12:43:33;;;;;;;1.73;1.63;;;;;;;;;;5034601;28;20519;-63
2021/07/20 12:46:08;;;;;;;1.63;1.50;;;;;;;;;;5045156;28;20100;-64
2021/07/20 12:48:34;;;;;;;1.45;1.35;;;;;;;;;;5030323;28;20047;-64
2021/07/20 12:51:10;;;;;;;1.40;1.30;;;;;;;;;;5048221;28;20029;-63
2021/07/20 12:53:41;;;;;;;1.88;1.50;;;;;;;;;;5035735;28;20078;-63
2021/07/20 12:56:09;;;;;;;1.75;1.50;;;;;;;;;;5026991;28;20583;-63
2021/07/20 12:58:35;;;;;;;1.67;1.50;;;;;;;;;;5030851;28;20621;-63
2021/07/20 13:01:01;;;;;;;1.60;1.50;;;;;;;;;;5042368;28;20036;-63
2021/07/20 13:03:27;;;;;;;3.50;1.90;;;;;;;;;;5045583;28;20032;-62
2021/07/20 13:05:53;;;;;;;1.33;1.20;;;;;;;;;;5028790;28;20025;-63
2021/07/20 13:08:20;;;;;;;1.83;1.70;;;;;;;;;;5031403;28;20025;-63
2021/07/20 13:10:50;;;;;;;1.50;1.40;;;;;;;;;;5027030;28;20053;-63
2021/07/20 13:13:16;;;;;;;2.47;1.58;;;;;;;;;;5035688;28;20472;-63
2021/07/20 13:15:49;;;;;;;1.30;1.20;;;;;;;;;;5034316;28;20422;-63
2021/07/20 13:18:20;;;;;;;1.63;1.50;;;;;;;;;;5041203;28;20043;-63
2021/07/20 13:20:49;;;;;;;1.92;1.70;;;;;;;;;;5026754;28;20037;-64
2021/07/20 13:23:15;;;;;;;1.58;1.48;;;;;;;;;;5034078;28;20025;-62
2021/07/20 13:25:41;;;;;;;2.08;1.88;;;;;;;;;;5040297;28;20628;-62
2021/07/20 13:28:07;;;;;;;2.75;1.65;;;;;;;;;;5027382;28;20041;-62
2021/07/20 13:30:33;;;;;;;1.70;1.60;;;;;;;;;;5029502;28;20091;-63
2021/07/20 13:33:00;;;;;;;1.85;1.60;;;;;;;;;;5042966;28;20364;-62
2021/07/20 13:35:27;;;;;;;1.90;1.60;;;;;;;;;;5031048;28;20253;-61
2021/07/20 13:37:54;;;;;;;1.98;1.77;;;;;;;;;;5043078;28;20021;-61
2021/07/20 13:40:21;;;;;;;3.95;1.80;;;;;;;;;;5046192;28;20028;-61
2021/07/20 13:42:48;;;;;;;1.60;1.50;;;;;;;;;;5044896;28;20021;-62
2021/07/20 13:45:15;;;;;;;1.98;1.80;;;;;;;;;;5044178;28;20028;-62
2021/07/20 13:48:02;;;;;;;1.58;1.38;;;;;;;;;;5045319;28;20525;-62
2021/07/20 13:50:32;;;;;;;1.95;1.80;;;;;;;;;;5043808;28;20485;-63
2021/07/20 13:53:00;;;;;;;2.20;1.55;;;;;;;;;;5044615;28;20075;-64
2021/07/20 13:55:28;;;;;;;2.55;2.08;;;;;;;;;;5044809;28;20033;-63
2021/07/20 13:57:55;;;;;;;2.22;1.70;;;;;;;;;;5044805;28;20102;-64
2021/07/20 14:00:22;;;;;;;1.83;1.60;;;;;;;;;;5044256;28;20025;-63
2021/07/20 14:02:48;;;;;;;2.00;1.80;;;;;;;;;;5044900;28;20020;-63
2021/07/20 14:05:15;;;;;;;2.05;1.50;;;;;;;;;;5044161;28;20111;-63
2021/07/20 14:07:42;;;;;;;1.73;1.63;;;;;;;;;;5044944;28;20455;-63
2021/07/20 14:10:08;;;;;;;1.50;1.40;;;;;;;;;;5045438;28;20053;-63
2021/07/20 14:12:34;;;;;;;1.75;1.60;;;;;;;;;;5044783;28;20021;-63
2021/07/20 14:15:01;;;;;;;1.70;1.60;;;;;;;;;;5044708;28;20036;-63
2021/07/20 14:17:28;;;;;;;2.25;2.00;;;;;;;;;;5044652;28;20248;-62
2021/07/20 14:19:54;;;;;;;2.33;2.13;;;;;;;;;;5044482;28;20455;-63
2021/07/20 14:22:23;;;;;;;2.00;1.80;;;;;;;;;;5044343;28;20415;-62
2021/07/20 14:24:50;;;;;;;2.10;1.90;;;;;;;;;;5044764;28;20022;-62
2021/07/20 14:27:17;;;;;;;2.50;2.30;;;;;;;;;;5044335;28;20442;-63
2021/07/20 14:29:43;;;;;;;2.00;1.80;;;;;;;;;;5044651;28;20518;-63
2021/07/20 14:32:14;;;;;;;2.03;1.90;;;;;;;;;;5044802;28;20053;-62
2021/07/20 14:34:43;;;;;;;3.17;2.25;;;;;;;;;;5045168;28;20080;-63
2021/07/20 14:37:09;;;;;;;2.28;2.00;;;;;;;;;;5044540;28;20036;-63
2021/07/20 14:39:35;;;;;;;3.90;2.80;;;;;;;;;;5044600;28;20044;-63
2021/07/20 14:42:01;;;;;;;3.60;2.30;;;;;;;;;;5043998;28;20116;-63
2021/07/20 14:44:28;;;;;;;2.20;2.00;;;;;;;;;;5044000;28;20112;-63
2021/07/20 14:46:55;;;;;;;2.65;2.20;;;;;;;;;;5043692;28;20021;-63
2021/07/20 14:49:22;;;;;;;3.25;2.13;;;;;;;;;;5044103;28;20044;-63
2021/07/20 14:51:48;;;;;;;2.70;2.30;;;;;;;;;;5043986;28;20074;-63
2021/07/20 14:54:26;;;;;;;2.40;1.77;;;;;;;;;;5046375;28;20025;-63
2021/07/20 14:56:56;;;;;;;2.03;1.73;;;;;;;;;;5047667;28;20062;-63